sensor_id;sensor_type;location;lat;lon;timestamp;P1;durP1;ratioP1;P2;durP2;ratioP2
11092;SDS011;5600;50.864;6.102;2023-10-13T00:00:34;82.97;;;9.23;;
11092;SDS011;5600;50.864;6.102;2023-10-13T00:03:40;41.88;;;7.85;;
11092;SDS011;5600;50.864;6.102;2023-10-13T00:06:59;53.67;;;8.95;;
11092;SDS011;5600;50.864;6.102;2023-10-13T00:10:20;48.78;;;8.13;;
11092;SDS011;5600;50.864;6.102;2023-10-13T00:13:21;46.78;;;7.50;;
11092;SDS011;5600;50.864;6.102;2023-10-13T00:16:22;40.20;;;7.70;;
11092;SDS011;5600;50.864;6.102;2023-10-13T00:19:28;49.88;;;8.20;;
11092;SDS011;5600;50.864;6.102;2023-10-13T00:22:37;46.90;;;8.10;;
11092;SDS011;5600;50.864;6.102;2023-10-13T00:25:40;25.58;;;6.75;;
11092;SDS011;5600;50.864;6.102;2023-10-13T00:28:50;39.05;;;7.28;;
11092;SDS011;5600;50.864;6.102;2023-10-13T00:31:59;35.42;;;7.10;;
11092;SDS011;5600;50.864;6.102;2023-10-13T00:35:00;44.47;;;7.32;;
11092;SDS011;5600;50.864;6.102;2023-10-13T00:38:05;35.38;;;7.40;;
11092;SDS011;5600;50.864;6.102;2023-10-13T00:41:19;38.47;;;7.38;;
11092;SDS011;5600;50.864;6.102;2023-10-13T00:44:35;42.08;;;7.57;;
11092;SDS011;5600;50.864;6.102;2023-10-13T00:47:41;37.55;;;7.15;;
11092;SDS011;5600;50.864;6.102;2023-10-13T00:50:49;39.90;;;7.35;;
11092;SDS011;5600;50.864;6.102;2023-10-13T00:53:50;25.55;;;6.55;;
11092;SDS011;5600;50.864;6.102;2023-10-13T00:56:51;40.40;;;7.22;;
11092;SDS011;5600;50.864;6.102;2023-10-13T01:00:10;37.75;;;7.22;;
11092;SDS011;5600;50.864;6.102;2023-10-13T01:03:25;44.20;;;7.88;;
11092;SDS011;5600;50.864;6.102;2023-10-13T01:06:27;28.63;;;7.53;;
11092;SDS011;5600;50.864;6.102;2023-10-13T01:09:28;54.55;;;8.80;;
11092;SDS011;5600;50.864;6.102;2023-10-13T01:12:33;50.05;;;8.43;;
11092;SDS011;5600;50.864;6.102;2023-10-13T01:15:33;43.50;;;8.20;;
11092;SDS011;5600;50.864;6.102;2023-10-13T01:18:34;48.30;;;8.25;;
11092;SDS011;5600;50.864;6.102;2023-10-13T01:21:47;39.75;;;8.15;;
11092;SDS011;5600;50.864;6.102;2023-10-13T01:24:49;39.30;;;8.25;;
11092;SDS011;5600;50.864;6.102;2023-10-13T01:27:51;39.83;;;8.00;;
11092;SDS011;5600;50.864;6.102;2023-10-13T01:30:52;50.38;;;8.55;;
11092;SDS011;5600;50.864;6.102;2023-10-13T01:33:53;46.28;;;8.45;;
11092;SDS011;5600;50.864;6.102;2023-10-13T01:36:55;38.30;;;7.80;;
11092;SDS011;5600;50.864;6.102;2023-10-13T01:39:56;43.60;;;8.30;;
11092;SDS011;5600;50.864;6.102;2023-10-13T01:42:56;38.03;;;8.55;;
11092;SDS011;5600;50.864;6.102;2023-10-13T01:45:57;37.40;;;8.20;;
11092;SDS011;5600;50.864;6.102;2023-10-13T01:48:58;47.50;;;9.57;;
11092;SDS011;5600;50.864;6.102;2023-10-13T01:51:58;25.10;;;8.30;;
11092;SDS011;5600;50.864;6.102;2023-10-13T01:55:03;42.60;;;8.23;;
11092;SDS011;5600;50.864;6.102;2023-10-13T01:58:06;42.17;;;8.25;;
11092;SDS011;5600;50.864;6.102;2023-10-13T02:01:15;31.20;;;7.30;;
11092;SDS011;5600;50.864;6.102;2023-10-13T02:04:28;43.58;;;8.43;;
11092;SDS011;5600;50.864;6.102;2023-10-13T02:07:28;44.15;;;7.55;;
11092;SDS011;5600;50.864;6.102;2023-10-13T02:10:34;67.30;;;9.68;;
11092;SDS011;5600;50.864;6.102;2023-10-13T02:13:35;49.83;;;8.93;;
11092;SDS011;5600;50.864;6.102;2023-10-13T02:16:49;41.38;;;7.72;;
11092;SDS011;5600;50.864;6.102;2023-10-13T02:19:50;42.38;;;7.82;;
11092;SDS011;5600;50.864;6.102;2023-10-13T02:22:54;39.90;;;8.10;;
11092;SDS011;5600;50.864;6.102;2023-10-13T02:25:55;40.58;;;8.50;;
11092;SDS011;5600;50.864;6.102;2023-10-13T02:29:10;39.67;;;8.15;;
11092;SDS011;5600;50.864;6.102;2023-10-13T02:32:13;36.63;;;8.55;;
11092;SDS011;5600;50.864;6.102;2023-10-13T02:35:18;41.33;;;7.70;;
11092;SDS011;5600;50.864;6.102;2023-10-13T02:38:33;63.55;;;9.05;;
11092;SDS011;5600;50.864;6.102;2023-10-13T02:41:37;54.60;;;8.98;;
11092;SDS011;5600;50.864;6.102;2023-10-13T02:44:38;57.90;;;8.77;;
11092;SDS011;5600;50.864;6.102;2023-10-13T02:47:41;56.58;;;8.55;;
11092;SDS011;5600;50.864;6.102;2023-10-13T02:50:44;67.63;;;9.18;;
11092;SDS011;5600;50.864;6.102;2023-10-13T02:53:54;45.80;;;8.70;;
11092;SDS011;5600;50.864;6.102;2023-10-13T02:57:05;68.65;;;8.77;;
11092;SDS011;5600;50.864;6.102;2023-10-13T03:00:06;32.30;;;7.28;;
11092;SDS011;5600;50.864;6.102;2023-10-13T03:03:15;38.17;;;7.38;;
11092;SDS011;5600;50.864;6.102;2023-10-13T03:06:18;31.15;;;6.80;;
11092;SDS011;5600;50.864;6.102;2023-10-13T03:09:28;29.20;;;6.57;;
11092;SDS011;5600;50.864;6.102;2023-10-13T03:12:28;21.50;;;6.00;;
11092;SDS011;5600;50.864;6.102;2023-10-13T03:15:33;45.20;;;7.53;;
11092;SDS011;5600;50.864;6.102;2023-10-13T03:18:35;68.55;;;8.95;;
11092;SDS011;5600;50.864;6.102;2023-10-13T03:21:36;51.92;;;7.32;;
11092;SDS011;5600;50.864;6.102;2023-10-13T03:24:37;32.38;;;6.30;;
11092;SDS011;5600;50.864;6.102;2023-10-13T03:27:45;54.40;;;7.65;;
11092;SDS011;5600;50.864;6.102;2023-10-13T03:31:01;59.47;;;7.45;;
11092;SDS011;5600;50.864;6.102;2023-10-13T03:34:02;35.30;;;6.30;;
11092;SDS011;5600;50.864;6.102;2023-10-13T03:37:04;44.97;;;7.00;;
11092;SDS011;5600;50.864;6.102;2023-10-13T03:40:12;35.20;;;6.53;;
11092;SDS011;5600;50.864;6.102;2023-10-13T03:43:19;34.00;;;6.28;;
11092;SDS011;5600;50.864;6.102;2023-10-13T03:46:21;38.95;;;6.63;;
11092;SDS011;5600;50.864;6.102;2023-10-13T03:49:23;29.80;;;5.82;;
11092;SDS011;5600;50.864;6.102;2023-10-13T03:52:25;36.22;;;6.35;;
11092;SDS011;5600;50.864;6.102;2023-10-13T03:55:26;45.20;;;6.72;;
11092;SDS011;5600;50.864;6.102;2023-10-13T03:58:30;45.30;;;6.28;;
11092;SDS011;5600;50.864;6.102;2023-10-13T04:01:31;34.60;;;6.10;;
11092;SDS011;5600;50.864;6.102;2023-10-13T04:04:44;65.72;;;7.88;;
11092;SDS011;5600;50.864;6.102;2023-10-13T04:07:47;115.70;;;9.95;;
11092;SDS011;5600;50.864;6.102;2023-10-13T04:11:07;80.70;;;8.52;;
11092;SDS011;5600;50.864;6.102;2023-10-13T04:14:26;87.85;;;9.15;;
11092;SDS011;5600;50.864;6.102;2023-10-13T04:17:50;79.55;;;7.90;;
11092;SDS011;5600;50.864;6.102;2023-10-13T04:20:53;86.57;;;8.30;;
11092;SDS011;5600;50.864;6.102;2023-10-13T04:24:07;74.63;;;8.00;;
11092;SDS011;5600;50.864;6.102;2023-10-13T04:27:18;92.47;;;9.02;;
11092;SDS011;5600;50.864;6.102;2023-10-13T04:30:35;115.43;;;9.80;;
11092;SDS011;5600;50.864;6.102;2023-10-13T04:33:52;99.15;;;9.57;;
11092;SDS011;5600;50.864;6.102;2023-10-13T04:36:56;87.80;;;8.45;;
11092;SDS011;5600;50.864;6.102;2023-10-13T04:40:18;82.97;;;8.20;;
11092;SDS011;5600;50.864;6.102;2023-10-13T04:43:26;90.07;;;8.50;;
11092;SDS011;5600;50.864;6.102;2023-10-13T04:46:33;54.85;;;6.63;;
11092;SDS011;5600;50.864;6.102;2023-10-13T04:49:46;95.72;;;8.60;;
11092;SDS011;5600;50.864;6.102;2023-10-13T04:52:46;79.80;;;8.10;;
11092;SDS011;5600;50.864;6.102;2023-10-13T04:56:02;80.80;;;8.10;;
11092;SDS011;5600;50.864;6.102;2023-10-13T04:59:03;110.10;;;9.20;;
11092;SDS011;5600;50.864;6.102;2023-10-13T05:02:36;129.05;;;10.13;;
11092;SDS011;5600;50.864;6.102;2023-10-13T05:05:45;82.47;;;8.13;;
11092;SDS011;5600;50.864;6.102;2023-10-13T05:09:14;96.03;;;8.73;;
11092;SDS011;5600;50.864;6.102;2023-10-13T05:13:09;68.40;;;7.35;;
11092;SDS011;5600;50.864;6.102;2023-10-13T05:16:48;87.65;;;8.23;;
11092;SDS011;5600;50.864;6.102;2023-10-13T05:20:07;94.53;;;8.63;;
11092;SDS011;5600;50.864;6.102;2023-10-13T05:23:27;89.75;;;8.48;;
11092;SDS011;5600;50.864;6.102;2023-10-13T05:26:46;93.80;;;9.00;;
11092;SDS011;5600;50.864;6.102;2023-10-13T05:30:05;90.38;;;9.05;;
11092;SDS011;5600;50.864;6.102;2023-10-13T05:33:44;107.28;;;9.80;;
11092;SDS011;5600;50.864;6.102;2023-10-13T05:37:22;79.18;;;8.27;;
11092;SDS011;5600;50.864;6.102;2023-10-13T05:41:01;95.63;;;9.10;;
11092;SDS011;5600;50.864;6.102;2023-10-13T05:44:22;79.78;;;8.23;;
11092;SDS011;5600;50.864;6.102;2023-10-13T05:47:37;78.47;;;8.30;;
11092;SDS011;5600;50.864;6.102;2023-10-13T05:50:38;117.10;;;10.57;;
11092;SDS011;5600;50.864;6.102;2023-10-13T05:54:18;83.53;;;8.93;;
11092;SDS011;5600;50.864;6.102;2023-10-13T05:57:21;87.57;;;8.88;;
11092;SDS011;5600;50.864;6.102;2023-10-13T06:00:41;120.32;;;10.32;;
11092;SDS011;5600;50.864;6.102;2023-10-13T06:04:00;98.38;;;9.73;;
11092;SDS011;5600;50.864;6.102;2023-10-13T06:07:20;88.28;;;9.05;;
11092;SDS011;5600;50.864;6.102;2023-10-13T06:10:40;114.68;;;10.60;;
11092;SDS011;5600;50.864;6.102;2023-10-13T06:13:59;113.28;;;10.85;;
11092;SDS011;5600;50.864;6.102;2023-10-13T06:17:19;99.03;;;10.57;;
11092;SDS011;5600;50.864;6.102;2023-10-13T06:20:39;108.28;;;10.07;;
11092;SDS011;5600;50.864;6.102;2023-10-13T06:23:58;93.38;;;9.98;;
11092;SDS011;5600;50.864;6.102;2023-10-13T06:27:18;79.55;;;9.57;;
11092;SDS011;5600;50.864;6.102;2023-10-13T06:30:37;118.85;;;10.73;;
11092;SDS011;5600;50.864;6.102;2023-10-13T06:33:38;79.35;;;8.80;;
11092;SDS011;5600;50.864;6.102;2023-10-13T06:36:45;90.88;;;9.60;;
11092;SDS011;5600;50.864;6.102;2023-10-13T06:39:47;83.20;;;8.95;;
11092;SDS011;5600;50.864;6.102;2023-10-13T06:42:49;83.50;;;8.90;;
11092;SDS011;5600;50.864;6.102;2023-10-13T06:45:49;88.63;;;9.00;;
11092;SDS011;5600;50.864;6.102;2023-10-13T06:49:04;95.97;;;9.48;;
11092;SDS011;5600;50.864;6.102;2023-10-13T06:52:05;94.07;;;9.40;;
11092;SDS011;5600;50.864;6.102;2023-10-13T06:55:06;86.10;;;9.02;;
11092;SDS011;5600;50.864;6.102;2023-10-13T06:58:10;63.53;;;7.88;;
11092;SDS011;5600;50.864;6.102;2023-10-13T07:01:13;83.95;;;9.68;;
11092;SDS011;5600;50.864;6.102;2023-10-13T07:04:22;106.53;;;10.02;;
11092;SDS011;5600;50.864;6.102;2023-10-13T07:07:24;144.52;;;11.55;;
11092;SDS011;5600;50.864;6.102;2023-10-13T07:10:24;49.25;;;7.35;;
11092;SDS011;5600;50.864;6.102;2023-10-13T07:13:30;91.00;;;9.50;;
11092;SDS011;5600;50.864;6.102;2023-10-13T07:16:31;71.93;;;7.80;;
11092;SDS011;5600;50.864;6.102;2023-10-13T07:19:35;82.18;;;8.63;;
11092;SDS011;5600;50.864;6.102;2023-10-13T07:22:45;120.88;;;10.13;;
11092;SDS011;5600;50.864;6.102;2023-10-13T07:25:57;135.60;;;11.00;;
11092;SDS011;5600;50.864;6.102;2023-10-13T07:29:03;111.88;;;9.52;;
11092;SDS011;5600;50.864;6.102;2023-10-13T07:32:08;85.97;;;8.70;;
11092;SDS011;5600;50.864;6.102;2023-10-13T07:35:13;98.38;;;9.52;;
11092;SDS011;5600;50.864;6.102;2023-10-13T07:38:18;105.38;;;9.93;;
11092;SDS011;5600;50.864;6.102;2023-10-13T07:41:21;69.93;;;8.27;;
11092;SDS011;5600;50.864;6.102;2023-10-13T07:44:30;95.22;;;9.10;;
11092;SDS011;5600;50.864;6.102;2023-10-13T07:47:34;87.97;;;9.05;;
11092;SDS011;5600;50.864;6.102;2023-10-13T07:50:35;137.07;;;10.65;;
11092;SDS011;5600;50.864;6.102;2023-10-13T07:53:36;107.95;;;9.60;;
11092;SDS011;5600;50.864;6.102;2023-10-13T07:56:40;84.72;;;8.65;;
11092;SDS011;5600;50.864;6.102;2023-10-13T07:59:44;96.93;;;9.27;;
11092;SDS011;5600;50.864;6.102;2023-10-13T08:03:00;90.72;;;8.93;;
11092;SDS011;5600;50.864;6.102;2023-10-13T08:06:17;94.40;;;8.63;;
11092;SDS011;5600;50.864;6.102;2023-10-13T08:09:18;93.90;;;9.10;;
11092;SDS011;5600;50.864;6.102;2023-10-13T08:12:32;95.90;;;8.68;;
11092;SDS011;5600;50.864;6.102;2023-10-13T08:15:32;103.40;;;9.57;;
11092;SDS011;5600;50.864;6.102;2023-10-13T08:18:33;103.85;;;9.18;;
11092;SDS011;5600;50.864;6.102;2023-10-13T08:21:36;97.38;;;9.07;;
11092;SDS011;5600;50.864;6.102;2023-10-13T08:24:37;96.28;;;8.65;;
11092;SDS011;5600;50.864;6.102;2023-10-13T08:27:38;95.57;;;8.93;;
11092;SDS011;5600;50.864;6.102;2023-10-13T08:31:10;121.32;;;9.82;;
11092;SDS011;5600;50.864;6.102;2023-10-13T08:34:26;123.50;;;10.32;;
11092;SDS011;5600;50.864;6.102;2023-10-13T08:37:30;67.72;;;8.25;;
11092;SDS011;5600;50.864;6.102;2023-10-13T08:40:47;80.18;;;9.20;;
11092;SDS011;5600;50.864;6.102;2023-10-13T08:43:58;111.95;;;10.00;;
11092;SDS011;5600;50.864;6.102;2023-10-13T08:47:03;102.95;;;9.27;;
11092;SDS011;5600;50.864;6.102;2023-10-13T08:50:06;101.68;;;8.98;;
11092;SDS011;5600;50.864;6.102;2023-10-13T08:53:27;86.93;;;8.70;;
11092;SDS011;5600;50.864;6.102;2023-10-13T08:56:32;80.85;;;8.15;;
11092;SDS011;5600;50.864;6.102;2023-10-13T08:59:34;127.78;;;10.90;;
11092;SDS011;5600;50.864;6.102;2023-10-13T09:02:53;98.55;;;9.38;;
11092;SDS011;5600;50.864;6.102;2023-10-13T09:06:00;136.35;;;11.07;;
11092;SDS011;5600;50.864;6.102;2023-10-13T09:09:06;103.40;;;9.60;;
11092;SDS011;5600;50.864;6.102;2023-10-13T09:12:11;89.43;;;9.20;;
11092;SDS011;5600;50.864;6.102;2023-10-13T09:15:27;89.60;;;9.38;;
11092;SDS011;5600;50.864;6.102;2023-10-13T09:18:49;81.88;;;8.98;;
11092;SDS011;5600;50.864;6.102;2023-10-13T09:21:52;107.80;;;11.02;;
11092;SDS011;5600;50.864;6.102;2023-10-13T09:24:55;98.43;;;10.27;;
11092;SDS011;5600;50.864;6.102;2023-10-13T09:28:00;83.03;;;8.73;;
11092;SDS011;5600;50.864;6.102;2023-10-13T09:31:02;107.93;;;9.93;;
11092;SDS011;5600;50.864;6.102;2023-10-13T09:34:07;71.43;;;8.88;;
11092;SDS011;5600;50.864;6.102;2023-10-13T09:37:09;95.95;;;9.93;;
11092;SDS011;5600;50.864;6.102;2023-10-13T09:40:15;92.00;;;9.77;;
11092;SDS011;5600;50.864;6.102;2023-10-13T09:43:26;92.75;;;10.32;;
11092;SDS011;5600;50.864;6.102;2023-10-13T09:46:29;55.05;;;8.27;;
11092;SDS011;5600;50.864;6.102;2023-10-13T09:49:31;74.90;;;9.10;;
11092;SDS011;5600;50.864;6.102;2023-10-13T09:52:45;72.38;;;8.57;;
11092;SDS011;5600;50.864;6.102;2023-10-13T09:55:58;62.72;;;8.38;;
11092;SDS011;5600;50.864;6.102;2023-10-13T09:59:11;93.22;;;10.00;;
11092;SDS011;5600;50.864;6.102;2023-10-13T10:02:16;82.53;;;9.38;;
11092;SDS011;5600;50.864;6.102;2023-10-13T10:05:26;67.25;;;8.65;;
11092;SDS011;5600;50.864;6.102;2023-10-13T10:08:26;68.10;;;8.60;;
11092;SDS011;5600;50.864;6.102;2023-10-13T10:14:56;110.97;;;10.73;;
11092;SDS011;5600;50.864;6.102;2023-10-13T10:18:20;93.60;;;10.45;;
11092;SDS011;5600;50.864;6.102;2023-10-13T10:21:35;91.85;;;10.05;;
11092;SDS011;5600;50.864;6.102;2023-10-13T10:24:36;94.50;;;9.60;;
11092;SDS011;5600;50.864;6.102;2023-10-13T10:27:38;109.88;;;10.65;;
11092;SDS011;5600;50.864;6.102;2023-10-13T10:30:39;115.40;;;11.43;;
11092;SDS011;5600;50.864;6.102;2023-10-13T10:33:42;74.45;;;8.52;;
11092;SDS011;5600;50.864;6.102;2023-10-13T10:37:02;77.80;;;8.60;;
11092;SDS011;5600;50.864;6.102;2023-10-13T10:40:09;104.53;;;10.30;;
11092;SDS011;5600;50.864;6.102;2023-10-13T10:43:19;82.30;;;9.00;;
11092;SDS011;5600;50.864;6.102;2023-10-13T10:46:27;74.30;;;8.77;;
11092;SDS011;5600;50.864;6.102;2023-10-13T10:49:29;53.90;;;7.38;;
11092;SDS011;5600;50.864;6.102;2023-10-13T10:52:38;90.88;;;8.98;;
11092;SDS011;5600;50.864;6.102;2023-10-13T10:55:40;69.57;;;8.45;;
11092;SDS011;5600;50.864;6.102;2023-10-13T10:58:41;67.95;;;8.13;;
11092;SDS011;5600;50.864;6.102;2023-10-13T11:01:45;70.10;;;7.90;;
11092;SDS011;5600;50.864;6.102;2023-10-13T11:04:52;90.53;;;9.13;;
11092;SDS011;5600;50.864;6.102;2023-10-13T11:07:55;110.10;;;9.93;;
11092;SDS011;5600;50.864;6.102;2023-10-13T11:10:57;102.35;;;9.38;;
11092;SDS011;5600;50.864;6.102;2023-10-13T11:14:00;106.07;;;10.00;;
11092;SDS011;5600;50.864;6.102;2023-10-13T11:17:21;87.97;;;8.30;;
11092;SDS011;5600;50.864;6.102;2023-10-13T11:20:42;137.23;;;10.73;;
11092;SDS011;5600;50.864;6.102;2023-10-13T11:23:54;83.07;;;8.23;;
11092;SDS011;5600;50.864;6.102;2023-10-13T11:26:56;163.43;;;11.52;;
11092;SDS011;5600;50.864;6.102;2023-10-13T11:29:58;110.90;;;9.60;;
11092;SDS011;5600;50.864;6.102;2023-10-13T11:33:09;137.40;;;11.25;;
11092;SDS011;5600;50.864;6.102;2023-10-13T11:36:11;90.35;;;9.10;;
11092;SDS011;5600;50.864;6.102;2023-10-13T11:39:22;82.45;;;8.10;;
11092;SDS011;5600;50.864;6.102;2023-10-13T11:42:26;77.25;;;7.85;;
11092;SDS011;5600;50.864;6.102;2023-10-13T11:45:28;75.80;;;7.63;;
11092;SDS011;5600;50.864;6.102;2023-10-13T11:48:32;103.38;;;8.73;;
11092;SDS011;5600;50.864;6.102;2023-10-13T11:51:39;72.20;;;8.05;;
11092;SDS011;5600;50.864;6.102;2023-10-13T11:54:46;78.35;;;7.65;;
11092;SDS011;5600;50.864;6.102;2023-10-13T11:57:47;83.03;;;8.40;;
11092;SDS011;5600;50.864;6.102;2023-10-13T12:00:51;82.65;;;8.40;;
11092;SDS011;5600;50.864;6.102;2023-10-13T12:04:15;124.72;;;10.18;;
11092;SDS011;5600;50.864;6.102;2023-10-13T12:07:32;126.63;;;10.60;;
11092;SDS011;5600;50.864;6.102;2023-10-13T12:10:48;92.97;;;8.20;;
11092;SDS011;5600;50.864;6.102;2023-10-13T12:14:00;106.80;;;9.75;;
11092;SDS011;5600;50.864;6.102;2023-10-13T12:17:15;132.48;;;10.35;;
11092;SDS011;5600;50.864;6.102;2023-10-13T12:20:18;67.05;;;6.97;;
11092;SDS011;5600;50.864;6.102;2023-10-13T12:23:32;109.30;;;9.10;;
11092;SDS011;5600;50.864;6.102;2023-10-13T12:26:33;110.70;;;9.73;;
11092;SDS011;5600;50.864;6.102;2023-10-13T12:29:38;96.28;;;8.82;;
11092;SDS011;5600;50.864;6.102;2023-10-13T12:32:46;82.57;;;8.43;;
11092;SDS011;5600;50.864;6.102;2023-10-13T12:36:02;138.90;;;11.07;;
11092;SDS011;5600;50.864;6.102;2023-10-13T12:39:07;135.45;;;10.82;;
11092;SDS011;5600;50.864;6.102;2023-10-13T12:42:07;118.18;;;9.93;;
11092;SDS011;5600;50.864;6.102;2023-10-13T12:45:27;101.38;;;9.25;;
11092;SDS011;5600;50.864;6.102;2023-10-13T12:48:46;85.57;;;8.35;;
11092;SDS011;5600;50.864;6.102;2023-10-13T12:51:59;112.28;;;9.98;;
11092;SDS011;5600;50.864;6.102;2023-10-13T12:55:00;92.63;;;8.98;;
11092;SDS011;5600;50.864;6.102;2023-10-13T12:58:07;69.38;;;7.82;;
11092;SDS011;5600;50.864;6.102;2023-10-13T13:01:08;79.68;;;8.02;;
11092;SDS011;5600;50.864;6.102;2023-10-13T13:04:09;67.68;;;7.25;;
11092;SDS011;5600;50.864;6.102;2023-10-13T13:07:20;122.10;;;10.15;;
11092;SDS011;5600;50.864;6.102;2023-10-13T13:10:21;130.93;;;10.27;;
11092;SDS011;5600;50.864;6.102;2023-10-13T13:13:35;71.80;;;8.13;;
11092;SDS011;5600;50.864;6.102;2023-10-13T13:16:36;72.93;;;7.47;;
11092;SDS011;5600;50.864;6.102;2023-10-13T13:19:39;135.15;;;10.77;;
11092;SDS011;5600;50.864;6.102;2023-10-13T13:22:40;87.55;;;8.40;;
11092;SDS011;5600;50.864;6.102;2023-10-13T13:30:28;64.38;;;7.47;;
11092;SDS011;5600;50.864;6.102;2023-10-13T13:33:34;53.60;;;7.28;;
11092;SDS011;5600;50.864;6.102;2023-10-13T13:36:39;72.30;;;7.57;;
11092;SDS011;5600;50.864;6.102;2023-10-13T13:39:45;81.93;;;8.93;;
11092;SDS011;5600;50.864;6.102;2023-10-13T13:42:46;64.60;;;7.07;;
11092;SDS011;5600;50.864;6.102;2023-10-13T13:45:47;54.33;;;6.95;;
11092;SDS011;5600;50.864;6.102;2023-10-13T13:48:48;69.50;;;7.63;;
11092;SDS011;5600;50.864;6.102;2023-10-13T13:51:49;45.88;;;6.45;;
11092;SDS011;5600;50.864;6.102;2023-10-13T13:54:53;78.00;;;8.52;;
11092;SDS011;5600;50.864;6.102;2023-10-13T13:57:53;81.63;;;7.93;;
11092;SDS011;5600;50.864;6.102;2023-10-13T14:01:02;80.88;;;8.45;;
11092;SDS011;5600;50.864;6.102;2023-10-13T14:04:14;97.30;;;8.80;;
11092;SDS011;5600;50.864;6.102;2023-10-13T14:07:18;88.45;;;8.30;;
11092;SDS011;5600;50.864;6.102;2023-10-13T14:10:20;57.15;;;7.03;;
11092;SDS011;5600;50.864;6.102;2023-10-13T14:13:34;78.40;;;8.20;;
11092;SDS011;5600;50.864;6.102;2023-10-13T14:16:50;74.15;;;7.63;;
11092;SDS011;5600;50.864;6.102;2023-10-13T14:19:52;77.97;;;8.27;;
11092;SDS011;5600;50.864;6.102;2023-10-13T14:22:55;56.50;;;6.78;;
11092;SDS011;5600;50.864;6.102;2023-10-13T14:25:58;51.72;;;6.35;;
11092;SDS011;5600;50.864;6.102;2023-10-13T14:28:59;92.45;;;8.70;;
11092;SDS011;5600;50.864;6.102;2023-10-13T14:32:12;103.38;;;9.35;;
11092;SDS011;5600;50.864;6.102;2023-10-13T14:35:15;59.35;;;7.40;;
11092;SDS011;5600;50.864;6.102;2023-10-13T14:38:16;112.13;;;9.85;;
11092;SDS011;5600;50.864;6.102;2023-10-13T14:41:17;55.95;;;6.72;;
11092;SDS011;5600;50.864;6.102;2023-10-13T14:44:18;66.20;;;7.53;;
11092;SDS011;5600;50.864;6.102;2023-10-13T14:47:23;87.30;;;8.52;;
11092;SDS011;5600;50.864;6.102;2023-10-13T14:50:27;53.53;;;6.88;;
11092;SDS011;5600;50.864;6.102;2023-10-13T14:53:28;98.95;;;9.05;;
11092;SDS011;5600;50.864;6.102;2023-10-13T14:56:29;90.68;;;8.75;;
11092;SDS011;5600;50.864;6.102;2023-10-13T14:59:30;58.15;;;6.72;;
11092;SDS011;5600;50.864;6.102;2023-10-13T15:02:38;49.70;;;6.30;;
11092;SDS011;5600;50.864;6.102;2023-10-13T15:05:39;39.30;;;5.85;;
11092;SDS011;5600;50.864;6.102;2023-10-13T15:08:47;55.50;;;6.93;;
11092;SDS011;5600;50.864;6.102;2023-10-13T15:11:49;72.43;;;7.57;;
11092;SDS011;5600;50.864;6.102;2023-10-13T15:14:54;48.05;;;7.07;;
11092;SDS011;5600;50.864;6.102;2023-10-13T15:17:56;56.20;;;6.95;;
11092;SDS011;5600;50.864;6.102;2023-10-13T15:20:58;61.85;;;7.03;;
11092;SDS011;5600;50.864;6.102;2023-10-13T15:23:59;81.15;;;7.90;;
11092;SDS011;5600;50.864;6.102;2023-10-13T15:27:24;64.95;;;7.57;;
11092;SDS011;5600;50.864;6.102;2023-10-13T15:30:25;91.40;;;8.52;;
11092;SDS011;5600;50.864;6.102;2023-10-13T15:33:31;51.80;;;6.47;;
11092;SDS011;5600;50.864;6.102;2023-10-13T15:36:33;51.30;;;7.25;;
11092;SDS011;5600;50.864;6.102;2023-10-13T15:39:35;56.17;;;8.27;;
11092;SDS011;5600;50.864;6.102;2023-10-13T15:42:37;78.28;;;8.55;;
11092;SDS011;5600;50.864;6.102;2023-10-13T15:45:41;53.22;;;6.45;;
11092;SDS011;5600;50.864;6.102;2023-10-13T15:48:47;48.00;;;6.22;;
11092;SDS011;5600;50.864;6.102;2023-10-13T15:51:48;58.65;;;7.43;;
11092;SDS011;5600;50.864;6.102;2023-10-13T15:54:53;52.08;;;6.35;;
11092;SDS011;5600;50.864;6.102;2023-10-13T15:57:56;53.75;;;6.55;;
11092;SDS011;5600;50.864;6.102;2023-10-13T16:00:57;51.60;;;6.50;;
11092;SDS011;5600;50.864;6.102;2023-10-13T16:04:01;39.42;;;5.78;;
11092;SDS011;5600;50.864;6.102;2023-10-13T16:07:11;70.35;;;7.53;;
11092;SDS011;5600;50.864;6.102;2023-10-13T16:10:12;65.93;;;7.25;;
11092;SDS011;5600;50.864;6.102;2023-10-13T16:13:13;78.30;;;7.50;;
11092;SDS011;5600;50.864;6.102;2023-10-13T16:16:21;66.78;;;7.35;;
11092;SDS011;5600;50.864;6.102;2023-10-13T16:19:23;40.20;;;6.05;;
11092;SDS011;5600;50.864;6.102;2023-10-13T16:22:24;43.85;;;6.07;;
11092;SDS011;5600;50.864;6.102;2023-10-13T16:25:26;78.00;;;7.38;;
11092;SDS011;5600;50.864;6.102;2023-10-13T16:28:27;71.63;;;7.55;;
11092;SDS011;5600;50.864;6.102;2023-10-13T16:31:28;67.32;;;7.22;;
11092;SDS011;5600;50.864;6.102;2023-10-13T16:34:29;50.08;;;6.30;;
11092;SDS011;5600;50.864;6.102;2023-10-13T16:37:30;42.70;;;6.22;;
11092;SDS011;5600;50.864;6.102;2023-10-13T16:40:32;58.13;;;6.70;;
11092;SDS011;5600;50.864;6.102;2023-10-13T16:43:33;39.65;;;6.03;;
11092;SDS011;5600;50.864;6.102;2023-10-13T16:46:36;54.30;;;6.35;;
11092;SDS011;5600;50.864;6.102;2023-10-13T16:49:37;62.60;;;6.80;;
11092;SDS011;5600;50.864;6.102;2023-10-13T16:52:38;60.15;;;6.78;;
11092;SDS011;5600;50.864;6.102;2023-10-13T16:55:40;56.88;;;6.65;;
11092;SDS011;5600;50.864;6.102;2023-10-13T16:58:45;40.65;;;5.95;;
11092;SDS011;5600;50.864;6.102;2023-10-13T17:01:46;43.58;;;6.00;;
11092;SDS011;5600;50.864;6.102;2023-10-13T17:04:47;50.15;;;6.28;;
11092;SDS011;5600;50.864;6.102;2023-10-13T17:07:48;59.25;;;6.50;;
11092;SDS011;5600;50.864;6.102;2023-10-13T17:10:51;49.72;;;6.32;;
11092;SDS011;5600;50.864;6.102;2023-10-13T17:13:53;48.17;;;5.97;;
11092;SDS011;5600;50.864;6.102;2023-10-13T17:16:54;29.40;;;5.50;;
11092;SDS011;5600;50.864;6.102;2023-10-13T17:19:58;53.10;;;6.43;;
11092;SDS011;5600;50.864;6.102;2023-10-13T17:22:59;48.85;;;5.93;;
11092;SDS011;5600;50.864;6.102;2023-10-13T17:26:02;29.30;;;5.30;;
11092;SDS011;5600;50.864;6.102;2023-10-13T17:29:12;62.88;;;7.25;;
11092;SDS011;5600;50.864;6.102;2023-10-13T17:32:13;51.22;;;6.40;;
11092;SDS011;5600;50.864;6.102;2023-10-13T17:35:17;58.35;;;7.03;;
11092;SDS011;5600;50.864;6.102;2023-10-13T17:38:18;59.58;;;6.63;;
11092;SDS011;5600;50.864;6.102;2023-10-13T17:41:19;65.78;;;7.38;;
11092;SDS011;5600;50.864;6.102;2023-10-13T17:44:21;53.03;;;6.57;;
11092;SDS011;5600;50.864;6.102;2023-10-13T17:47:22;55.55;;;7.07;;
11092;SDS011;5600;50.864;6.102;2023-10-13T17:50:26;55.72;;;6.55;;
11092;SDS011;5600;50.864;6.102;2023-10-13T17:53:28;57.65;;;6.88;;
11092;SDS011;5600;50.864;6.102;2023-10-13T17:56:35;46.28;;;7.20;;
11092;SDS011;5600;50.864;6.102;2023-10-13T17:59:37;31.02;;;5.28;;
11092;SDS011;5600;50.864;6.102;2023-10-13T18:02:37;32.70;;;5.50;;
11092;SDS011;5600;50.864;6.102;2023-10-13T18:05:42;48.20;;;6.30;;
11092;SDS011;5600;50.864;6.102;2023-10-13T18:08:43;46.45;;;6.60;;
11092;SDS011;5600;50.864;6.102;2023-10-13T18:11:44;44.50;;;6.43;;
11092;SDS011;5600;50.864;6.102;2023-10-13T18:14:46;46.33;;;6.72;;
11092;SDS011;5600;50.864;6.102;2023-10-13T18:17:47;37.13;;;6.00;;
11092;SDS011;5600;50.864;6.102;2023-10-13T18:20:48;63.38;;;7.38;;
11092;SDS011;5600;50.864;6.102;2023-10-13T18:23:50;52.83;;;7.03;;
11092;SDS011;5600;50.864;6.102;2023-10-13T18:26:52;63.92;;;7.55;;
11092;SDS011;5600;50.864;6.102;2023-10-13T18:29:56;44.85;;;6.78;;
11092;SDS011;5600;50.864;6.102;2023-10-13T18:33:00;36.65;;;5.95;;
11092;SDS011;5600;50.864;6.102;2023-10-13T18:39:15;44.08;;;6.68;;
11092;SDS011;5600;50.864;6.102;2023-10-13T18:42:19;37.58;;;6.35;;
11092;SDS011;5600;50.864;6.102;2023-10-13T18:45:20;59.05;;;7.50;;
11092;SDS011;5600;50.864;6.102;2023-10-13T18:48:22;51.85;;;6.32;;
11092;SDS011;5600;50.864;6.102;2023-10-13T18:51:24;57.53;;;7.22;;